createdAt,value
2018-06-23T15:11:07.171Z,31.05
2018-06-23T15:13:40.147Z,28.88
2018-06-23T15:16:09.889Z,28.83
2018-06-23T15:18:39.630Z,28.89
2018-06-23T15:21:09.346Z,27.99
2018-06-23T15:23:46.056Z,28.30
2018-06-23T15:26:23.362Z,28.14
2018-06-23T15:28:53.999Z,27.96
2018-06-23T15:31:27.315Z,27.92
2018-06-23T15:34:01.935Z,28.35
2018-06-23T15:36:32.141Z,29.05
2018-06-23T15:39:03.253Z,28.68
2018-06-23T15:41:32.821Z,27.71
2018-06-23T15:44:03.473Z,28.67
2018-06-23T15:46:34.718Z,28.10
2018-06-23T15:49:04.444Z,28.71
2018-06-23T15:51:38.928Z,28.79
2018-06-23T15:54:08.905Z,28.38
2018-06-23T15:56:38.816Z,28.31
2018-06-23T15:59:13.221Z,28.31
2018-06-23T16:01:42.974Z,29.85
2018-06-23T16:04:13.022Z,29.10
2018-06-23T16:06:43.207Z,29.74
2018-06-23T16:09:14.152Z,29.58
2018-06-23T16:11:43.751Z,29.38
2018-06-23T16:14:13.408Z,29.10
2018-06-23T16:16:45.050Z,29.50
2018-06-23T16:19:14.685Z,29.44
2018-06-23T16:21:47.197Z,29.63
2018-06-23T16:24:16.725Z,29.62
2018-06-23T16:26:46.382Z,30.02
2018-06-23T16:29:15.835Z,30.54
2018-06-23T16:31:45.646Z,30.70
2018-06-23T16:34:15.148Z,30.59
2018-06-23T16:36:44.967Z,30.64
2018-06-23T16:39:14.826Z,30.88
2018-06-23T16:41:44.366Z,31.17
2018-06-23T16:44:13.861Z,31.19
2018-06-23T16:46:43.966Z,30.95
2018-06-23T16:49:13.746Z,31.59
2018-06-23T16:51:43.336Z,31.52
2018-06-23T16:54:13.005Z,32.16
2018-06-23T16:56:43.634Z,31.45
2018-06-23T16:59:15.359Z,32.13
2018-06-23T17:01:45.295Z,31.44
2018-06-23T17:04:15.124Z,32.94
2018-06-23T17:06:45.275Z,33.52
2018-06-23T17:09:15.693Z,33.46
2018-06-23T17:11:45.303Z,33.57
2018-06-23T17:14:14.920Z,33.95
2018-06-23T17:16:45.138Z,33.73
2018-06-23T17:19:14.877Z,33.84
2018-06-23T17:21:44.554Z,34.38
2018-06-23T17:24:14.248Z,33.58
2018-06-23T17:26:44.077Z,34.40
2018-06-23T17:29:13.813Z,34.62
2018-06-23T17:31:43.498Z,34.69
2018-06-23T17:34:13.228Z,34.07
2018-06-23T17:36:42.710Z,35.29
2018-06-23T17:39:12.290Z,35.22
2018-06-23T17:41:42.103Z,35.73
2018-06-23T17:44:12.186Z,34.94
2018-06-23T17:46:41.909Z,35.02
2018-06-23T17:49:11.576Z,35.17
2018-06-23T17:51:41.020Z,34.73
2018-06-23T17:54:11.019Z,35.65
2018-06-23T17:56:41.092Z,35.27
2018-06-23T17:59:10.853Z,35.80
2018-06-23T18:01:40.489Z,35.66
2018-06-23T18:04:10.061Z,35.43
2018-06-23T18:06:39.788Z,34.76
2018-06-23T18:09:10.613Z,35.49
2018-06-23T18:11:40.450Z,35.83
2018-06-23T18:14:10.427Z,36.27
2018-06-23T18:16:40.005Z,35.37
2018-06-23T18:19:09.717Z,35.52
2018-06-23T18:21:40.764Z,35.67
2018-06-23T18:24:10.535Z,35.23
2018-06-23T18:26:40.151Z,35.88
2018-06-23T18:29:09.716Z,35.69
2018-06-23T18:31:39.897Z,35.31
2018-06-23T18:34:09.509Z,35.74
2018-06-23T18:36:39.079Z,35.83
2018-06-23T18:39:11.145Z,35.63
2018-06-23T18:41:40.857Z,35.89
2018-06-23T18:44:10.796Z,35.88
2018-06-23T18:46:40.383Z,36.37
2018-06-23T18:49:10.137Z,36.36
2018-06-23T18:51:41.701Z,36.52
2018-06-23T18:54:11.436Z,35.90
2018-06-23T18:56:41.244Z,36.16
2018-06-23T18:59:10.963Z,36.29
2018-06-23T19:01:46.784Z,36.10
2018-06-23T19:04:16.731Z,36.82
2018-06-23T19:06:46.800Z,36.56
2018-06-23T19:09:16.544Z,36.04
2018-06-23T19:11:46.028Z,35.72
2018-06-23T19:14:15.816Z,35.98
2018-06-23T19:16:45.747Z,35.66
2018-06-23T19:19:15.269Z,36.21
2018-06-23T19:21:44.907Z,35.62
2018-06-23T19:24:15.302Z,35.71
2018-06-23T19:26:45.180Z,35.88
2018-06-23T19:29:14.825Z,35.96
2018-06-23T19:31:44.630Z,36.31
2018-06-23T19:34:15.373Z,35.66
2018-06-23T19:36:45.318Z,36.47
2018-06-23T19:39:15.043Z,36.22
2018-06-23T19:41:44.864Z,36.43
2018-06-23T19:44:14.621Z,36.79
2018-06-23T19:46:44.135Z,36.88
2018-06-23T19:49:14.662Z,36.75
2018-06-23T19:51:44.214Z,37.12
2018-06-23T19:54:14.993Z,36.73
2018-06-23T19:56:45.251Z,37.41
2018-06-23T19:59:14.856Z,37.07
2018-06-23T20:01:44.587Z,38.01
2018-06-23T20:04:14.811Z,37.33
2018-06-23T20:06:44.482Z,38.22
2018-06-23T20:09:14.412Z,38.40
2018-06-23T20:11:44.092Z,38.51
2018-06-23T20:14:13.842Z,38.38
2018-06-23T20:16:43.679Z,38.03
2018-06-23T20:19:13.554Z,38.66
2018-06-23T20:21:43.183Z,38.43
2018-06-23T20:24:13.001Z,39.41
2018-06-23T20:26:42.857Z,38.89
2018-06-23T20:29:12.495Z,39.69
2018-06-23T20:31:42.554Z,39.68
2018-06-23T20:34:12.315Z,39.44
2018-06-23T20:36:42.000Z,39.60
2018-06-23T20:39:12.247Z,39.55
2018-06-23T20:41:42.013Z,39.62
2018-06-23T20:44:11.476Z,40.05
2018-06-23T20:46:41.057Z,39.68
2018-06-23T20:49:10.688Z,40.76
2018-06-23T20:51:42.176Z,40.74
2018-06-23T20:54:11.854Z,40.62
2018-06-23T20:56:41.502Z,40.78
2018-06-23T20:59:12.180Z,40.92
2018-06-23T21:01:44.084Z,41.08
2018-06-23T21:04:13.745Z,41.16
2018-06-23T21:06:43.430Z,40.85
2018-06-23T21:09:15.827Z,41.05
2018-06-23T21:11:45.684Z,41.08
2018-06-23T21:14:15.877Z,41.67
2018-06-23T21:16:46.237Z,41.53
2018-06-23T21:19:16.240Z,41.40
2018-06-23T21:21:45.970Z,41.42
2018-06-23T21:24:15.538Z,41.64
2018-06-23T21:26:45.043Z,41.34
2018-06-23T21:29:14.715Z,42.18
2018-06-23T21:31:44.228Z,42.32
2018-06-23T21:34:14.667Z,41.65
2018-06-23T21:36:44.143Z,42.28
2018-06-23T21:39:13.876Z,42.19
2018-06-23T21:41:43.902Z,42.56
2018-06-23T21:44:13.613Z,41.84
2018-06-23T21:46:43.092Z,42.76
2018-06-23T21:49:14.484Z,42.49
2018-06-23T21:51:44.415Z,42.67
2018-06-23T21:54:14.375Z,42.42
2018-06-23T21:56:43.879Z,43.25
2018-06-23T21:59:13.326Z,43.31
2018-06-23T22:01:42.848Z,42.99
2018-06-23T22:04:12.828Z,44.11
2018-06-23T22:06:42.711Z,43.93
2018-06-23T22:09:12.958Z,44.30
2018-06-23T22:11:43.051Z,44.91
2018-06-23T22:14:12.659Z,45.39
2018-06-23T22:16:42.262Z,45.26
2018-06-23T22:19:11.878Z,45.47
2018-06-23T22:21:41.471Z,44.99
2018-06-23T22:24:10.955Z,44.87
2018-06-23T22:26:40.620Z,45.28
2018-06-23T22:29:10.245Z,44.90
2018-06-23T22:31:39.945Z,45.61
2018-06-23T22:34:09.730Z,45.21
2018-06-23T22:36:39.325Z,44.89
2018-06-23T22:39:11.201Z,45.13
2018-06-23T22:41:40.679Z,45.24
2018-06-23T22:44:10.315Z,45.41
2018-06-23T22:46:39.848Z,44.83
2018-06-23T22:49:09.434Z,45.57
2018-06-23T22:51:39.135Z,45.54
2018-06-23T22:54:08.734Z,44.90
2018-06-23T22:56:38.271Z,44.65
2018-06-23T22:59:07.862Z,45.25
2018-06-23T23:01:38.242Z,44.90
2018-06-23T23:04:07.742Z,44.86
2018-06-23T23:06:37.541Z,45.33
2018-06-23T23:09:10.020Z,46.06
2018-06-23T23:11:39.560Z,45.78
2018-06-23T23:14:09.262Z,46.02
2018-06-23T23:16:38.787Z,46.14
2018-06-23T23:19:08.754Z,45.98
2018-06-23T23:21:38.429Z,45.82
2018-06-23T23:24:08.158Z,46.24
2018-06-23T23:26:37.702Z,45.72
2018-06-23T23:29:07.830Z,46.09
2018-06-23T23:31:37.394Z,46.50
2018-06-23T23:34:07.369Z,45.97
2018-06-23T23:36:36.865Z,46.32
2018-06-23T23:39:09.737Z,46.36
2018-06-23T23:41:39.393Z,47.34
2018-06-23T23:44:09.242Z,46.80
2018-06-23T23:46:38.844Z,46.69
2018-06-23T23:49:08.638Z,46.86
2018-06-23T23:51:38.229Z,47.02
2018-06-23T23:54:07.742Z,47.06
2018-06-23T23:56:37.467Z,46.98
2018-06-23T23:59:07.161Z,47.07
